Tulsa, OK

6:09 PM CDT on August 31, 2015 (GMT -0500)
Cherry Street | | Change Station
CLOSE
Current Station
Personal Weather Station
Location: Tulsa, OK
Elevation: 743 ft
Nearby Weather Stations

Elev 743 ft 36.14 °N, 95.97 °W | Updated 3 minutes ago

Clear
Clear
90.7 °F
Feels Like 95 °F
N
4.0
Wind Variable Wind from SSE
Gusts 4.0 mph

Today
High -- | Low -- °F
--% Chance of Precip.
Yesterday
High -- | Low -- °F
Precip. -- in
6:54 AM 7:53 PM
Waning Gibbous, 93% visible
Pressure 29.91 in
Visibility 10.0 miles
Clouds Clear
Heat Index 95 °F
Dew Point 69 °F
Humidity 49%
Rainfall 0.00 in
Snow Depth Not available.
UV 2 out of 12
Pollen 9.80 out of 12
Air Quality Not available.
Flu Activity Not available.
METAR KTUL 312253Z 17014KT 10SM CLR 33/20 A2994 RMK AO2 SLP129 T03280200
Pressure 29.91 in
Visibility 10.0 miles
Clouds Clear
Heat Index 95 °F
Dew Point 69 °F
Humidity 49%
Rainfall 0.00 in
Snow Depth Not available.
UV 2 out of 12
Pollen 9.80 out of 12
Air Quality Not available.
Flu Activity Not available.
METAR KTUL 312253Z 17014KT 10SM CLR 33/20 A2994 RMK AO2 SLP129 T03280200
Nowcast | as of 6:03 PM CDT on August 31, 2015

At 6:03 PM...National Weather Service Doppler radars continued to detect a few isolated showers and thunderstorms developing over portions of southeast Oklahoma and western Arkansas...mainly within Carroll...Madison...Le Flore...and Sebastian counties. All this activity was mainly stationary...with a slight movement toward the north. Through 8:00 PM...isolated showers and thunderstorms will remain possible...mainly across southeast Oklahoma and western Arkansas. Light to moderate rainfall can be expected from most of the activity...with less than a tenth of an inch per hour. Any stronger thunderstorms could produce brief heavy rainfall...along with small hail...gusty winds...and cloud to ground lightning. Any stronger storms that remain over any location for an extended period of time could also cause localized flooding.

×

10-Day Weather Forecast

×

Almanac

Astronomy

Aug. 31, 2015 Rise Set
Actual Time
Civil Twilight
Nautical Twilight
Astronomical Twilight
Moon
Length of Visible Light
Length of Day
Tomorrow will be .
, % of the Moon is Illuminated

Today's Extremes

State Highs State Lows

Community

WunderPhotos

Upload Photos

1,851,390 photos uploaded!

WunderBlogs® & News

Nearby

Air Quality

  Air Quality AQ Index Pollutant
Not available.

Snow Depth

Station Depth Elevation

Earthquake Activity

City Distance Mag. Time & Date
Minimum magnitude displayed is 2.5.

Coastal Water Temperatures

Place Temperature

Stations

Nearby Weather Stations

Station Location Temp. Windchill Dew Point Humidity Wind Precip. Elev Updated Type